Steptoe Valley North, Nevada Weather observations

Data are for 10 minute period ending at time listed.
 Day   Time   Solar   Ave.   Ave.  Ave.  Vector  Max.   Baro.   Total    
  of    of     Rad.   Air    Rel.  Wind   Wind   Wind  Press.  Precip.   
Year   Day            Temp.  Hum.  Speed  Dir.   Gust                    
2014   (PST)  Kw/m2    F      %     mph   deg.    mph    mb.     in.     
-------------------------------------------------------------------------
 212    2:00   0.00   58.2    83    1.1    52     3.4   826.3    0.00 
 212    2:10   0.00   58.4    82    2.5    75     3.9   826.4    0.00 
 212    2:20   0.00   58.1    83    1.6    96     2.5   826.5    0.00 
 212    2:30   0.00   57.6    84    0.7   104     2.3   826.3    0.00 
 212    2:40   0.00   56.3    86    2.7   145     4.7   826.2    0.00 
 212    2:50   0.00   55.1    89    3.7   149     4.3   826.1    0.00 
 212    3:00   0.00   55.1    90    3.6   108     4.2   826.1    0.00 
 212    3:10   0.00   55.1    89    3.2   116     3.9   826.0    0.00 
 212    3:20   0.00   55.6    89    3.7    89     6.2   826.0    0.00 
 212    3:30   0.00   55.3    87    3.2    55     5.0   826.0    0.00 
 212    3:40   0.00   53.5    88    3.1   303     5.7   826.0    0.00 
 212    3:50   0.00   52.5    91    2.6   290     3.7   825.9    0.00 
 212    4:00   0.00   53.0    92    2.7   290     3.3   825.9    0.00 
 212    4:10   0.00   52.5    91    3.3   342     5.2   825.8    0.00 
 212    4:20   0.00   51.5    92    3.9   333     5.0   825.9    0.00 
 212    4:30   0.00   52.2    93    4.2   348     6.0   825.9    0.00 
 212    4:40   0.01   53.1    92    2.4   347     4.5   826.0    0.00 
 212    4:50   0.02   53.7    92    2.4   352     3.5   826.0    0.00 
 212    5:00   0.04   55.1    90    1.6     8     3.3   826.0    0.00 
 212    5:10   0.06   56.5    87    0.6    53     1.6   826.1    0.00 
 212    5:20   0.04   56.3    86    1.5   130     2.5   826.1    0.00 
 212    5:30   0.11   56.0    90    2.2    95     3.1   826.1    0.00 
 212    5:40   0.17   58.1    87    1.7    81     3.6   826.1    0.00 
 212    5:50   0.22   60.8    80    1.9    46     3.0   826.2    0.00 
 212    6:00   0.11   60.5    80    1.4    50     2.1   826.3    0.00 
 212    6:10   0.22   61.3    81    0.4    55     1.3   826.5    0.00 
 212    6:20   0.34   64.5    75    0.5    39     1.4   826.6    0.00 
 212    6:30   0.19   65.4    72    0.0     0     0.0   826.8    0.00 
 212    6:40   0.24   64.6    72    0.0     0     0.0   826.8    0.00 
 212    6:50   0.48   66.0    69    0.4   242     1.8   826.9    0.00 
 212    7:00   0.40   67.7    69    2.3   192     3.9   826.9    0.00 
 212    7:10   0.25   66.7    70    2.1   185     3.1   826.9    0.00 
 212    7:20   0.23   66.3    72    1.5   181     2.9   827.0    0.00 
 212    7:30   0.25   66.5    72    1.3   202     2.8   827.0    0.00 
 212    7:40   0.27   66.8    70    1.8   218     2.8   827.1    0.00 
 212    7:50   0.31   66.7    69    1.7   231     2.9   827.1    0.00 
 212    8:00   0.30   68.0    65    0.3   230     1.3   827.1    0.00 
 212    8:10   0.38   69.6    60    0.2   176     0.9   827.1    0.00 
 212    8:20   0.44   70.8    58    0.5   166     1.6   827.1    0.00 
 212    8:30   0.61   71.9    56    1.2   197     2.6   827.0    0.00 
 212    8:40   0.67   72.3    55    1.3   194     2.9   827.0    0.00 
 212    8:50   0.77   73.3    54    2.4   202     5.6   827.0    0.00 
 212    9:00   0.81   74.0    55    2.7   212     5.3   827.0    0.00 
 212    9:10   0.90   74.4    54    2.9   217     6.1   827.0    0.00 
 212    9:20   0.65   74.0    52    2.2   245     4.1   826.9    0.00 
 212    9:30   0.82   75.2    51    2.6   204     4.9   826.9    0.00 
 212    9:40   0.73   74.6    52    4.2   210     8.6   826.9    0.00 
 212    9:50   0.77   73.8    54    5.4   208     9.3   826.8    0.00 
 212   10:00   0.60   73.0    58    6.3   212    10.6   826.7    0.00 
 212   10:10   0.57   71.8    60    7.3   207    11.7   826.7    0.00 
 212   10:20   0.47   71.1    61    7.4   211    11.7   826.8    0.00 
 212   10:30   0.48   70.7    62    7.9   207    12.2   826.7    0.00 
 212   10:40   0.45   70.7    58   10.5   204    15.2   826.8    0.00 
 212   10:50   0.43   70.3    58   10.1   201    16.2   826.8    0.00 
 212   11:00   0.50   70.1    56   13.5   201    19.5   826.8    0.00 
 212   11:10   0.61   70.1    57   14.9   201    22.5   826.6    0.00 
 212   11:20   0.58   70.1    56   14.8   196    21.3   826.5    0.00 
 212   11:30   0.68   70.0    54   15.9   194    23.4   826.3    0.00 
 212   11:40   0.78   70.8    53   14.5   199    20.8   826.2    0.00 
 212   11:50   0.87   71.0    52   14.0   202    22.0   826.3    0.00 
 212   12:00   1.06   72.5    52   11.2   207    16.5   826.3    0.00 
 212   12:10   1.14   73.6    51   11.3   209    16.7   826.2    0.00 
 212   12:20   0.93   73.7    49    9.8   211    14.6   826.2    0.00 
 212   12:30   0.87   73.3    48    8.4   212    11.4   826.3    0.00 
 212   12:40   0.52   73.5    49    7.3   199    10.7   826.5    0.00 
 212   12:50   0.22   70.8    53   10.1   238    21.7   826.7    0.00 
 212   13:00   0.24   68.2    52   12.9   347    24.6   826.9    0.00 
 212   13:10   0.24   66.8    52   13.5   353    21.5   827.1    0.00 
 212   13:20   0.30   66.5    51   14.2   357    23.2   827.3    0.00 
 212   13:30   0.23   65.1    57    9.6     6    18.0   827.3    0.00 
 212   13:40   0.14   64.2    61   12.2    32    21.3   827.4    0.00 
 212   13:50   0.09   61.2    71   11.7    41    18.0   827.6    0.05 
 212   14:00   0.08   59.2    82   10.0    78    16.8   827.9    0.01 
 212   14:10   0.12   60.1    81   12.0    96    18.4   827.9    0.01 
 212   14:20   0.17   59.9    82   13.4    89    20.5   827.7    0.01 
 212   14:30   0.24   59.9    84   12.5    77    20.5   827.4    0.00 
 212   14:40   0.21   60.1    83   14.4    86    23.7   827.0    0.01 
 212   14:50   0.11   60.5    81   12.2    96    18.4   827.2    0.00 
 212   15:00   0.09   60.8    81    8.4   102    13.8   827.1    0.00 
 212   15:10   0.11   61.1    78    6.9   100    12.6   827.2    0.00 
 212   15:20   0.12   61.5    77    3.1   197     5.6   827.4    0.00 
 212   15:30   0.10   61.1    82    6.1   291     8.6   827.5    0.00 
 212   15:40   0.07   61.4    76    6.1   292     9.7   827.6    0.00 
 212   15:50   0.05   60.6    80    5.2   291     7.8   827.7    0.00 
 212   16:00   0.04   60.2    81    4.5   303     6.3   827.7    0.00 
 212   16:10   0.07   59.9    85    2.5    24     4.2   827.5    0.01 
 212   16:20   0.10   60.4    87    2.6    56     3.9   827.3    0.00 
 212   16:30   0.26   61.5    86    6.0   111    10.2   826.7    0.00 
 212   16:40   0.31   62.7    81    5.5   133    10.1   826.3    0.00 
 212   16:50   0.36   64.8    77    4.6   268    17.6   826.9    0.00 
 212   17:00   0.44   63.9    74   10.7   316    18.0   827.4    0.00 
 212   17:10   0.34   63.6    71   12.8   322    23.1   827.4    0.00 
 212   17:20   0.16   61.6    71   15.3   328    24.0   827.2    0.00 
 212   17:30   0.21   61.5    71   13.5   323    21.0   827.0    0.00 
 212   17:40   0.19   62.2    68   12.4   324    19.6   827.0    0.00 
 212   17:50   0.18   62.5    67    8.3   332    13.3   826.8    0.00 
 212   18:00   0.06   61.4    69    6.0   354    12.1   826.5    0.00 
 212   18:10   0.07   60.0    73    3.4    28     5.9   826.2    0.00 
 212   18:20   0.05   59.4    78    4.5   113     9.5   826.0    0.00 
 212   18:30   0.02   58.8    77    6.7   112     9.0   825.9    0.00 
 212   18:40   0.02   58.7    78    4.8   113     6.6   825.7    0.00 
 212   18:50   0.01   57.4    81    4.6   132     6.4   825.5    0.00 
 212   19:00   0.01   57.3    80    3.5   143     5.6   825.2    0.00 
 212   19:10   0.00   56.9    82    2.9   153     3.7   825.1    0.00 
 212   19:20   0.00   56.7    83    2.5   177     3.7   825.0    0.00 
 212   19:30   0.00   56.0    82    2.0   190     3.9   825.1    0.00 
 212   19:40   0.00   56.0    82    2.7   180     3.4   825.2    0.00 
 212   19:50   0.00   55.9    83    3.8    88     5.1   825.4    0.00 
 212   20:00   0.00   53.9    85    2.3    42     3.4   825.5    0.00 
 212   20:10   0.00   52.1    88    4.6    29     6.1   825.5    0.00 
 212   20:20   0.00   53.3    91    6.4    38     9.6   825.8    0.00 
 212   20:30   0.00   54.3    90    4.8    51     9.6   825.9    0.00 
 212   20:40   0.00   53.9    90    1.7   120     4.0   826.0    0.00 
 212   20:50   0.00   52.5    90    2.4   325     6.9   826.1    0.00 
 212   21:00   0.00   51.5    92    4.4   309     7.1   826.3    0.00 
 212   21:10   0.00   52.8    87    3.8   332     5.8   826.2    0.00 
 212   21:20   0.00   51.6    88    2.6    31     4.2   826.0    0.00 
 212   21:30   0.00   50.7    90    2.0    26     3.4   826.2    0.00 
 212   21:40   0.00   51.6    92    3.3    85     5.0   826.2    0.00 
 212   21:50   0.00   52.1    88    3.4    69     5.2   826.1    0.00 
 212   22:00   0.00   53.7    85    2.9    78     3.8   825.9    0.00 
 212   22:10   0.00   53.6    86    2.6   108     3.9   825.9    0.00 
 212   22:20   0.00   52.4    90    1.9   127     3.3   825.9    0.00 
 212   22:30   0.00   51.4    91    2.5   102     3.3   825.9    0.00 
 212   22:40   0.00   49.9    91    1.2    52     2.5   826.0    0.00 
 212   22:50   0.00   49.1    93    2.8    72     4.4   825.8    0.00 
 212   23:00   0.00   50.8    94    2.7   112     3.7   825.9    0.00 
 212   23:10   0.00   49.9    94    2.2   111     3.9   825.7    0.00 
 212   23:20   0.00   48.8    93    1.4   219     3.1   825.8    0.00 
 212   23:30   0.00   48.7    94    2.5   241     3.4   825.7    0.00 
 212   23:40   0.00   48.6    93    1.7   300     3.6   825.7    0.00 
 212   23:50   0.00   45.9    93    2.4    38     3.3   825.6    0.00 
 213    0:00   0.00   45.2    94    2.3   355     3.0   825.6    0.00 
 213    0:10   0.00   45.3    94    1.5   341     3.0   825.6    0.00 
 213    0:20   0.00   45.7    94    1.3     6     2.6   825.7    0.00 
 213    0:30   0.00   45.9    95    2.4    23     3.2   825.8    0.00 
 213    0:40   0.00   45.8    95    2.4    66     3.9   825.8    0.00 
 213    0:50   0.00   46.0    95    1.1   110     3.0   825.8    0.00 
 213    1:00   0.00   46.0    95    2.5   192     3.9   825.9    0.00 
 213    1:10   0.00   46.8    96    2.1   240     4.0   825.8    0.00 
 213    1:20   0.00   44.2    94    0.4   313     1.2   825.7    0.00 
 213    1:30   0.00   43.8    95    0.0     0     0.0   825.7    0.00 
 213    1:40   0.00   44.4    96    1.0   112     2.3   825.7    0.00 
 213    1:50   0.00   43.4    95    1.4   332     3.7   825.8    0.00 

Return to Steptoe Valley North graphs page.


Western Regional Climate Center,wrcc@dri.edu